Time;durP1;ratioP1;P1;durP2;ratioP2;P2;SDS_P1;SDS_P2;PMS_P1;PMS_P2;Temp;Humidity;BMP_temperature;BMP_pressure;BME280_temperature;BME280_humidity;BME280_pressure;Samples;Min_cycle;Max_cycle;Signal;HPM_P1;HPM_P2
2023/01/10 00:01:32;;;;;;;10.88;3.65;;;;;;;6.11;81.17;100996.22;3604071;39;20059;-63
2023/01/10 00:03:58;;;;;;;9.40;3.20;;;;;;;6.02;81.08;100984.13;3602513;39;20051;-63
2023/01/10 00:06:24;;;;;;;7.60;3.42;;;;;;;6.13;81.26;101011.25;3598275;39;20050;-62
2023/01/10 00:08:49;;;;;;;15.00;3.92;;;;;;;6.11;81.30;101012.25;3603930;39;20083;-63
2023/01/10 00:14:00;;;;;;;11.82;3.15;;;;;;;6.06;81.32;101025.78;3606219;39;20061;-63
2023/01/10 00:16:25;;;;;;;13.63;3.65;;;;;;;6.02;81.11;101029.47;3602912;39;20059;-62
2023/01/10 00:18:51;;;;;;;10.95;3.88;;;;;;;6.02;81.82;101034.81;3600995;39;20096;-62
2023/01/10 00:21:17;;;;;;;11.82;3.67;;;;;;;5.99;81.70;101037.59;3603832;39;20428;-63
2023/01/10 00:23:43;;;;;;;12.70;2.85;;;;;;;5.99;81.23;101050.94;3604313;39;20063;-62
2023/01/10 00:26:10;;;;;;;14.48;4.18;;;;;;;5.78;81.52;101025.97;3606028;39;20282;-63
2023/01/10 00:28:35;;;;;;;14.27;3.67;;;;;;;5.93;81.06;101056.53;3601373;39;20050;-64
2023/01/10 00:31:05;;;;;;;10.20;3.33;;;;;;;5.86;81.33;101065.66;3602476;39;20055;-65
2023/01/10 00:33:36;;;;;;;12.60;3.53;;;;;;;5.85;81.94;101063.94;3604423;39;20050;-65
2023/01/10 00:36:05;;;;;;;11.32;3.75;;;;;;;5.78;81.56;101066.84;3606238;39;20389;-65
2023/01/10 00:38:34;;;;;;;10.88;3.60;;;;;;;5.81;81.53;101079.19;3601229;39;20058;-65
2023/01/10 00:41:01;;;;;;;13.95;4.38;;;;;;;5.63;81.54;101053.22;3605433;39;20066;-64
2023/01/10 00:46:11;;;;;;;15.48;4.03;;;;;;;5.73;81.90;101073.28;3607301;39;20054;-65
2023/01/10 00:48:37;;;;;;;16.83;3.83;;;;;;;5.73;81.54;101076.81;3606267;39;20063;-65
2023/01/10 00:51:04;;;;;;;9.02;3.13;;;;;;;5.74;81.83;101080.34;3605452;39;20053;-64
2023/01/10 00:53:30;;;;;;;12.38;3.85;;;;;;;5.74;82.32;101088.34;3606115;39;20106;-64
2023/01/10 00:55:56;;;;;;;15.80;3.75;;;;;;;5.77;81.90;101088.22;3600146;39;20057;-64
2023/01/10 00:58:22;;;;;;;13.93;3.50;;;;;;;5.80;81.44;101088.09;3605182;39;20115;-65
2023/01/10 01:00:48;;;;;;;17.48;4.22;;;;;;;5.81;81.48;101085.41;3604377;39;20298;-64
2023/01/10 01:03:17;;;;;;;14.45;4.07;;;;;;;5.71;81.88;101068.00;3604801;39;20078;-64
2023/01/10 01:05:45;;;;;;;15.35;4.07;;;;;;;5.89;81.66;101087.75;3605419;39;20094;-64
2023/01/10 01:08:13;;;;;;;13.73;3.83;;;;;;;5.93;81.31;101093.88;3602836;39;20433;-64
2023/01/10 01:10:39;;;;;;;14.20;3.67;;;;;;;5.92;81.49;101105.44;3603514;39;20074;-64
2023/01/10 01:13:18;;;;;;;15.45;4.05;;;;;;;5.94;81.25;101101.84;3608161;39;20058;-67
2023/01/10 01:15:44;;;;;;;15.13;5.32;;;;;;;5.96;81.11;101099.09;3606608;39;20059;-64
2023/01/10 01:18:19;;;;;;;14.60;5.60;;;;;;;5.89;80.70;101098.44;3607453;39;20457;-64
2023/01/10 01:20:51;;;;;;;15.57;6.32;;;;;;;6.00;81.12;101125.63;3606690;39;20090;-65
2023/01/10 01:23:16;;;;;;;22.40;8.23;;;;;;;6.03;80.61;101132.66;3605295;39;20123;-65
2023/01/10 01:25:42;;;;;;;22.48;7.95;;;;;;;6.03;80.81;101121.97;3603894;39;20075;-65
2023/01/10 01:28:11;;;;;;;20.65;7.15;;;;;;;5.90;81.30;101115.31;3605457;39;20063;-65
2023/01/10 01:30:37;;;;;;;16.70;6.75;;;;;;;6.09;81.53;101143.09;3605557;39;20047;-65
2023/01/10 01:33:03;;;;;;;20.45;6.93;;;;;;;6.02;81.34;101133.56;3607063;39;20346;-65
2023/01/10 01:35:29;;;;;;;20.02;7.68;;;;;;;6.04;80.87;101140.56;3606053;39;20055;-65
2023/01/10 01:37:54;;;;;;;19.33;6.38;;;;;;;6.06;81.11;101148.53;3602868;39;20047;-65
2023/01/10 01:40:22;;;;;;;15.10;5.80;;;;;;;6.04;81.34;101145.06;3604755;39;20055;-65
2023/01/10 01:42:54;;;;;;;17.60;5.68;;;;;;;6.07;81.63;101155.59;3606524;39;20063;-65
2023/01/10 01:45:22;;;;;;;15.65;5.57;;;;;;;6.11;82.10;101157.22;3606540;39;20053;-65
2023/01/10 01:48:19;;;;;;;17.52;5.85;;;;;;;6.11;82.03;101151.88;3607510;39;20047;-66
2023/01/10 01:51:04;;;;;;;20.35;4.85;;;;;;;6.11;81.99;101154.56;3602903;39;20047;-65
2023/01/10 01:54:06;;;;;;;14.23;4.95;;;;;;;6.14;82.76;101162.44;3604656;39;20050;-65
2023/01/10 01:56:50;;;;;;;18.40;4.75;;;;;;;6.17;82.73;101166.81;3605745;39;20057;-65
2023/01/10 01:59:27;;;;;;;17.35;4.07;;;;;;;6.19;82.93;101172.97;3606726;39;20066;-64
2023/01/10 02:02:03;;;;;;;15.10;4.03;;;;;;;6.22;83.14;101181.72;3605031;39;20067;-64
2023/01/10 02:04:48;;;;;;;14.40;4.05;;;;;;;6.25;83.58;101178.94;3606531;39;20511;-66
2023/01/10 02:07:14;;;;;;;17.65;4.40;;;;;;;6.27;83.09;101174.38;3604100;39;20047;-67
2023/01/10 02:09:50;;;;;;;14.57;4.18;;;;;;;6.27;83.92;101179.72;3606155;39;20043;-67
2023/01/10 02:12:17;;;;;;;14.23;4.05;;;;;;;6.31;83.83;101179.63;3605527;39;20374;-65
2023/01/10 02:14:49;;;;;;;13.25;4.43;;;;;;;6.29;83.51;101174.34;3606229;39;20051;-64
2023/01/10 02:17:15;;;;;;;20.05;3.95;;;;;;;6.27;83.73;101182.41;3607502;39;20457;-63
2023/01/10 02:20:01;;;;;;;16.00;4.43;;;;;;;6.25;83.75;101189.63;3599193;39;20586;-62
2023/01/10 02:23:11;;;;;;;14.18;3.97;;;;;;;6.23;83.42;101194.13;3602963;39;20382;-61
2023/01/10 02:26:07;;;;;;;13.93;4.32;;;;;;;6.16;83.50;101181.94;3604753;39;20685;-62
2023/01/10 02:29:25;;;;;;;16.63;4.38;;;;;;;6.13;83.85;101184.75;3603270;39;20063;-63
2023/01/10 02:32:21;;;;;;;15.45;4.22;;;;;;;6.11;83.53;101183.06;3605680;39;20079;-63
2023/01/10 02:35:22;;;;;;;14.02;3.90;;;;;;;6.09;83.85;101175.13;3605745;39;20062;-62
2023/01/10 02:38:12;;;;;;;17.45;4.22;;;;;;;6.06;83.71;101180.56;3604518;39;20064;-63
2023/01/10 02:40:59;;;;;;;12.00;3.17;;;;;;;6.05;83.61;101184.13;3604794;39;20396;-62
2023/01/10 02:43:34;;;;;;;15.98;3.47;;;;;;;6.04;83.71;101185.94;3604903;39;20055;-61
2023/01/10 02:46:28;;;;;;;16.33;3.67;;;;;;;6.02;83.69;101184.25;3605249;39;20393;-62
2023/01/10 02:48:54;;;;;;;14.85;3.75;;;;;;;6.00;83.44;101181.66;3604410;39;20070;-62
2023/01/10 02:51:27;;;;;;;13.10;3.10;;;;;;;5.99;83.37;101189.72;3604761;39;20058;-61
2023/01/10 02:54:08;;;;;;;14.05;3.70;;;;;;;5.98;83.55;101193.31;3604176;39;20066;-62
2023/01/10 02:56:52;;;;;;;13.15;3.95;;;;;;;5.93;83.13;101198.84;3602543;39;20067;-61
2023/01/10 02:59:45;;;;;;;14.73;3.63;;;;;;;5.89;82.93;101194.47;3605802;39;20059;-63
2023/01/10 03:02:35;;;;;;;16.70;3.10;;;;;;;5.85;83.06;101202.66;3605525;39;20043;-62
2023/01/10 03:05:21;;;;;;;14.90;3.45;;;;;;;5.79;83.29;101212.63;3605487;39;20052;-61
2023/01/10 03:08:18;;;;;;;12.50;3.20;;;;;;;5.78;83.50;101208.22;3603755;39;20086;-62
2023/01/10 03:10:56;;;;;;;12.60;3.30;;;;;;;5.76;83.53;101223.38;3603251;39;20047;-62
2023/01/10 03:13:35;;;;;;;14.70;4.07;;;;;;;5.79;83.56;101219.75;3604130;39;20062;-62
2023/01/10 03:16:07;;;;;;;18.50;4.25;;;;;;;5.55;83.76;101186.81;3604965;39;20047;-61
2023/01/10 03:18:47;;;;;;;12.45;3.10;;;;;;;5.81;83.83;101224.13;3602866;39;20124;-62
2023/01/10 03:21:19;;;;;;;12.85;3.75;;;;;;;5.85;83.90;101240.88;3605915;39;20069;-62
2023/01/10 03:23:49;;;;;;;14.32;3.88;;;;;;;5.88;83.69;101243.44;3603976;39;20057;-62
2023/01/10 03:26:44;;;;;;;9.93;3.30;;;;;;;5.95;83.62;101244.13;3605580;39;20055;-62
2023/01/10 03:29:14;;;;;;;;;;;;;;;5.97;83.07;101244.94;3604469;39;20085;-61
2023/01/10 03:32:01;;;;;;;16.52;4.32;;;;;;;6.00;82.77;101250.19;3607753;39;20131;-61
2023/01/10 03:34:27;;;;;;;13.30;5.00;;;;;;;6.04;82.61;101251.78;3603542;39;20058;-61
2023/01/10 03:37:22;;;;;;;12.73;3.75;;;;;;;6.06;82.40;101252.63;3604172;39;20051;-62
2023/01/10 03:40:15;;;;;;;12.55;3.10;;;;;;;6.13;82.00;101256.81;3607542;39;20063;-61
2023/01/10 03:46:01;;;;;;;15.73;3.78;;;;;;;6.21;82.16;101264.50;3603398;39;20643;-62
2023/01/10 03:48:35;;;;;;;12.85;3.30;;;;;;;6.20;81.41;101269.00;3599081;39;20063;-62
2023/01/10 03:51:05;;;;;;;14.13;4.35;;;;;;;5.95;81.52;101225.44;3603000;39;20780;-62
2023/01/10 03:53:35;;;;;;;18.60;3.33;;;;;;;6.24;82.10;101275.09;3605217;39;20066;-62
2023/01/10 03:56:01;;;;;;;15.05;3.65;;;;;;;6.25;81.64;101277.72;3602429;39;21603;-62
2023/01/10 03:58:30;;;;;;;17.80;3.67;;;;;;;6.26;81.96;101278.56;3597214;39;20047;-61
2023/01/10 04:00:56;;;;;;;14.52;3.40;;;;;;;6.30;81.69;101287.34;3604005;39;20313;-62
2023/01/10 04:03:22;;;;;;;15.07;3.10;;;;;;;6.35;81.49;101293.41;3603794;39;21507;-61
2023/01/10 04:05:47;;;;;;;13.57;4.85;;;;;;;6.35;81.44;101298.75;3604025;39;20408;-61
2023/01/10 04:08:13;;;;;;;13.82;3.40;;;;;;;6.38;81.87;101294.16;3603110;39;20057;-62
2023/01/10 04:10:38;;;;;;;14.32;3.22;;;;;;;6.40;81.54;101294.06;3605299;39;20085;-62
2023/01/10 04:13:04;;;;;;;13.60;3.22;;;;;;;6.42;81.18;101297.56;3603672;39;20343;-62
2023/01/10 04:15:30;;;;;;;16.98;4.10;;;;;;;6.43;81.33;101291.28;3602713;39;20047;-62
2023/01/10 04:17:56;;;;;;;17.58;4.28;;;;;;;6.44;80.55;101307.28;3604728;39;20293;-61
2023/01/10 04:20:25;;;;;;;12.27;3.47;;;;;;;6.45;80.55;101305.47;3602207;39;20057;-62
2023/01/10 04:22:53;;;;;;;16.75;3.13;;;;;;;6.45;80.67;101310.81;3601631;39;20063;-62
2023/01/10 04:25:20;;;;;;;16.15;3.63;;;;;;;6.43;80.39;101310.84;3602690;39;20047;-62
2023/01/10 04:27:49;;;;;;;15.20;3.70;;;;;;;6.45;80.54;101326.84;3601739;39;20050;-62
2023/01/10 04:30:16;;;;;;;22.67;4.18;;;;;;;5.77;80.69;101206.47;3602156;39;20372;-62
2023/01/10 04:32:41;;;;;;;18.83;3.95;;;;;;;6.52;80.94;101317.66;3602160;39;20074;-62
2023/01/10 04:35:08;;;;;;;16.88;3.60;;;;;;;6.49;80.31;101323.13;3601378;39;20398;-62
2023/01/10 04:37:34;;;;;;;14.68;3.25;;;;;;;6.50;80.22;101320.41;3605283;39;20056;-62
2023/01/10 04:39:59;;;;;;;17.30;3.90;;;;;;;6.54;80.13;101310.47;3602809;39;20055;-62
2023/01/10 04:42:25;;;;;;;19.98;4.30;;;;;;;6.51;80.24;101306.13;3601577;39;20059;-62
2023/01/10 04:44:51;;;;;;;19.02;3.88;;;;;;;6.50;79.99;101308.81;3604659;39;20053;-62
2023/01/10 04:47:16;;;;;;;17.30;3.92;;;;;;;6.49;80.18;101309.75;3602504;39;20197;-62
2023/01/10 04:49:42;;;;;;;18.08;3.47;;;;;;;6.49;80.15;101321.31;3602680;39;20050;-62
2023/01/10 04:52:09;;;;;;;16.02;3.65;;;;;;;6.49;79.46;101334.66;3602564;39;20369;-63
2023/01/10 04:54:34;;;;;;;18.77;3.88;;;;;;;6.51;79.99;101337.28;3600582;39;20046;-62
2023/01/10 04:57:00;;;;;;;21.75;3.67;;;;;;;6.51;79.99;101331.97;3602414;39;20058;-62
2023/01/10 04:59:26;;;;;;;17.63;3.85;;;;;;;6.49;80.19;101328.47;3594603;39;20057;-62
2023/01/10 05:01:51;;;;;;;25.40;3.65;;;;;;;6.49;79.88;101323.13;3604089;39;20054;-62
2023/01/10 05:04:17;;;;;;;21.60;3.85;;;;;;;6.49;80.05;101312.44;3603470;39;20042;-62
2023/01/10 05:06:42;;;;;;;18.67;4.25;;;;;;;6.45;80.25;101314.34;3606459;39;20058;-62
2023/01/10 05:09:09;;;;;;;19.55;4.10;;;;;;;6.46;79.86;101332.09;3606873;39;20062;-62
2023/01/10 05:11:35;;;;;;;19.75;3.17;;;;;;;6.46;79.32;101328.56;3605961;39;20386;-62
2023/01/10 05:14:01;;;;;;;18.30;4.07;;;;;;;6.46;80.19;101352.59;3607215;39;20062;-63
2023/01/10 05:16:27;;;;;;;18.63;3.88;;;;;;;6.45;80.31;101366.91;3603984;39;20091;-62
2023/01/10 05:18:53;;;;;;;21.23;3.85;;;;;;;6.45;79.84;101365.09;3607044;39;20433;-62
2023/01/10 05:21:18;;;;;;;17.88;3.50;;;;;;;6.21;79.59;101337.47;3596189;39;20051;-63
2023/01/10 05:23:44;;;;;;;17.90;3.47;;;;;;;6.49;79.91;101392.56;3607714;39;20324;-62
2023/01/10 05:26:18;;;;;;;19.35;4.15;;;;;;;6.53;80.06;101379.97;3609281;39;20050;-62
2023/01/10 05:28:44;;;;;;;16.73;4.53;;;;;;;6.53;79.68;101383.50;3607209;39;20070;-62
2023/01/10 05:31:17;;;;;;;20.58;4.30;;;;;;;6.54;79.38;101381.72;3607658;39;20059;-63
2023/01/10 05:33:50;;;;;;;16.80;3.25;;;;;;;6.58;79.58;101402.03;3607350;39;20051;-62
2023/01/10 05:36:18;;;;;;;17.50;3.38;;;;;;;6.62;78.60;101388.50;3603701;39;20349;-62
2023/01/10 05:38:43;;;;;;;16.17;3.33;;;;;;;6.60;78.48;101387.72;3607372;39;20042;-63
2023/01/10 05:41:10;;;;;;;23.83;4.20;;;;;;;6.57;78.79;101379.81;3603947;39;20339;-62
2023/01/10 05:43:36;;;;;;;18.13;3.70;;;;;;;6.64;78.86;101391.13;3604656;39;20321;-62
2023/01/10 05:46:01;;;;;;;19.48;4.13;;;;;;;6.63;78.38;101390.28;3604564;39;20055;-62
2023/01/10 05:48:27;;;;;;;21.48;4.13;;;;;;;6.63;78.81;101395.63;3605886;39;20057;-62
2023/01/10 05:50:53;;;;;;;20.27;3.80;;;;;;;6.62;78.24;101406.34;3605787;39;21462;-62
2023/01/10 05:53:19;;;;;;;23.42;3.90;;;;;;;6.63;78.66;101408.97;3601492;39;20071;-62
2023/01/10 05:56:00;;;;;;;17.05;3.90;;;;;;;6.62;77.92;101409.00;3604493;39;20287;-62
2023/01/10 05:58:28;;;;;;;16.15;3.33;;;;;;;6.44;78.04;101387.38;3605241;39;20059;-62
2023/01/10 06:00:55;;;;;;;21.35;3.85;;;;;;;6.62;78.22;101419.69;3607123;39;20059;-62
2023/01/10 06:03:21;;;;;;;13.63;3.72;;;;;;;6.61;77.88;101416.16;3605397;39;20055;-62
2023/01/10 06:05:47;;;;;;;22.27;3.67;;;;;;;6.60;78.07;101422.44;3603900;39;20135;-62
2023/01/10 06:08:13;;;;;;;15.68;3.35;;;;;;;6.62;77.82;101420.56;3604867;39;20046;-62
2023/01/10 06:10:38;;;;;;;21.13;4.68;;;;;;;6.61;77.80;101429.50;3602964;39;20444;-62
2023/01/10 06:13:04;;;;;;;24.40;4.60;;;;;;;6.31;77.60;101371.84;3604599;39;20057;-62
2023/01/10 06:15:31;;;;;;;21.95;4.43;;;;;;;6.63;78.07;101416.09;3608099;39;20323;-61
2023/01/10 06:17:57;;;;;;;25.90;4.05;;;;;;;6.64;77.87;101412.50;3602246;39;20412;-63
2023/01/10 06:20:23;;;;;;;23.80;4.18;;;;;;;6.62;77.42;101411.69;3604391;39;20055;-61
2023/01/10 06:22:48;;;;;;;18.77;3.50;;;;;;;6.59;77.01;101410.00;3604357;39;20077;-61
2023/01/10 06:25:14;;;;;;;18.95;4.20;;;;;;;6.60;77.89;101422.44;3595565;39;20079;-61
2023/01/10 06:27:41;;;;;;;20.83;4.13;;;;;;;6.60;77.31;101432.25;3603845;39;20063;-61
2023/01/10 06:30:12;;;;;;;21.45;4.05;;;;;;;6.59;78.00;101436.69;3604555;39;20073;-61
2023/01/10 06:32:39;;;;;;;17.20;3.67;;;;;;;6.25;77.95;101379.16;3603000;39;20067;-61
2023/01/10 06:35:06;;;;;;;18.05;3.50;;;;;;;6.50;77.77;101431.69;3605547;39;20370;-62
2023/01/10 06:37:32;;;;;;;21.60;4.05;;;;;;;6.49;77.41;101436.16;3605143;39;20051;-61
2023/01/10 06:39:57;;;;;;;18.33;3.70;;;;;;;6.43;77.34;101433.69;3606562;39;20591;-61
2023/01/10 06:42:23;;;;;;;21.65;3.83;;;;;;;6.38;77.05;101430.34;3605778;39;20486;-61
2023/01/10 06:44:49;;;;;;;20.15;4.10;;;;;;;6.34;77.14;101435.81;3605797;39;20114;-61
2023/01/10 06:47:14;;;;;;;18.98;3.78;;;;;;;5.59;77.23;101336.00;3603370;39;20051;-61
2023/01/10 06:49:40;;;;;;;23.83;4.13;;;;;;;6.24;77.49;101441.47;3603967;39;20405;-61
2023/01/10 06:52:05;;;;;;;24.17;4.40;;;;;;;6.17;77.71;101444.41;3605077;39;20070;-61
2023/01/10 06:54:31;;;;;;;19.30;3.97;;;;;;;6.12;77.68;101454.34;3605723;39;20117;-61
2023/01/10 06:56:57;;;;;;;26.80;4.40;;;;;;;6.06;77.94;101460.78;3607190;39;20046;-60
2023/01/10 06:59:22;;;;;;;18.80;4.10;;;;;;;5.98;78.22;101468.16;3605870;39;20047;-61
2023/01/10 07:01:48;;;;;;;28.58;4.00;;;;;;;5.89;77.78;101457.75;3605717;39;20310;-60
2023/01/10 07:04:13;;;;;;;16.38;4.00;;;;;;;5.87;78.10;101463.16;3606294;39;20051;-61
2023/01/10 07:06:40;;;;;;;20.38;3.80;;;;;;;5.89;78.31;101479.97;3605900;39;20074;-60
2023/01/10 07:09:07;;;;;;;17.95;3.47;;;;;;;5.88;78.44;101493.38;3604549;39;20081;-60
2023/01/10 07:11:34;;;;;;;19.38;4.28;;;;;;;5.88;78.23;101501.38;3601750;39;20066;-60
2023/01/10 07:14:01;;;;;;;19.17;3.42;;;;;;;5.81;78.52;101493.56;3608218;39;20050;-60
2023/01/10 07:16:27;;;;;;;20.58;3.90;;;;;;;5.85;78.95;101509.47;3604305;39;20051;-61
2023/01/10 07:18:53;;;;;;;19.08;3.97;;;;;;;5.85;78.64;101512.13;3604914;39;20170;-61
2023/01/10 07:21:18;;;;;;;21.83;3.40;;;;;;;5.86;78.46;101503.19;3605388;39;20066;-60
2023/01/10 07:23:49;;;;;;;16.23;3.88;;;;;;;5.86;78.70;101521.88;3604309;39;20598;-62
2023/01/10 07:26:17;;;;;;;21.95;4.00;;;;;;;5.85;78.62;101522.81;3604722;39;20063;-60
2023/01/10 07:28:47;;;;;;;25.35;4.10;;;;;;;5.80;78.30;101496.25;3604818;39;20056;-59
2023/01/10 07:31:13;;;;;;;24.80;5.07;;;;;;;5.89;78.14;101528.00;3605230;39;20065;-60
2023/01/10 07:33:39;;;;;;;20.48;3.08;;;;;;;5.91;78.18;101530.63;3603336;39;20084;-60
2023/01/10 07:36:05;;;;;;;18.63;3.72;;;;;;;5.93;77.93;101537.69;3608032;39;20055;-60
2023/01/10 07:38:31;;;;;;;23.63;4.35;;;;;;;5.96;78.72;101544.72;3607391;39;20063;-60
2023/01/10 07:40:56;;;;;;;12.13;3.50;;;;;;;5.99;78.39;101557.97;3604499;39;20059;-60
2023/01/10 07:43:22;;;;;;;21.15;4.55;;;;;;;5.98;78.62;101551.75;3605418;39;20055;-61
2023/01/10 07:45:47;;;;;;;17.02;4.05;;;;;;;5.97;78.16;101542.00;3606083;39;20059;-59
2023/01/10 07:48:13;;;;;;;16.27;3.35;;;;;;;5.96;78.28;101542.03;3604490;39;20301;-59
2023/01/10 07:50:39;;;;;;;15.10;4.15;;;;;;;5.95;77.85;101546.50;3602359;39;20070;-59
2023/01/10 07:53:07;;;;;;;21.48;4.53;;;;;;;5.89;78.20;101562.69;3603562;39;20414;-61
2023/01/10 07:55:35;;;;;;;16.83;3.38;;;;;;;5.87;77.50;101558.28;3602974;39;20058;-61
2023/01/10 07:58:00;;;;;;;20.55;4.47;;;;;;;5.86;78.42;101557.44;3608306;39;20055;-60
2023/01/10 08:00:26;;;;;;;15.27;3.65;;;;;;;5.81;78.23;101560.25;3606796;39;20057;-61
2023/01/10 08:02:54;;;;;;;21.40;4.30;;;;;;;5.62;78.32;101529.72;3608206;39;20466;-60
2023/01/10 08:05:22;;;;;;;21.05;3.70;;;;;;;5.78;78.79;101563.00;3606376;39;20070;-60
2023/01/10 08:07:48;;;;;;;23.48;4.30;;;;;;;5.76;77.93;101559.50;3606435;39;20063;-61
2023/01/10 08:10:14;;;;;;;18.35;3.55;;;;;;;5.71;78.00;101557.88;3606033;39;20066;-61
2023/01/10 08:12:39;;;;;;;18.45;4.07;;;;;;;5.62;78.01;101545.72;3604660;39;20065;-61
2023/01/10 08:15:06;;;;;;;18.25;4.22;;;;;;;5.70;78.26;101553.47;3607115;39;20062;-61
2023/01/10 08:17:33;;;;;;;30.75;4.85;;;;;;;5.69;78.25;101560.63;3603459;39;20342;-61
2023/01/10 08:19:59;;;;;;;22.60;3.97;;;;;;;5.68;78.09;101550.88;3605121;39;20050;-61
2023/01/10 08:22:25;;;;;;;16.75;3.75;;;;;;;5.72;77.94;101554.31;3604813;39;20074;-61
2023/01/10 08:24:50;;;;;;;19.75;4.65;;;;;;;5.74;78.39;101553.38;3606364;39;20059;-61
2023/01/10 08:27:16;;;;;;;18.98;4.38;;;;;;;5.71;78.45;101541.88;3604502;39;20047;-61
2023/01/10 08:29:42;;;;;;;17.48;3.78;;;;;;;5.80;77.87;101553.19;3605552;39;20306;-61
2023/01/10 08:32:08;;;;;;;20.38;3.97;;;;;;;5.81;77.92;101565.59;3599155;39;20059;-61
2023/01/10 08:34:33;;;;;;;20.90;4.18;;;;;;;5.84;77.60;101571.75;3601599;39;20831;-61
2023/01/10 08:36:59;;;;;;;18.05;3.55;;;;;;;5.75;77.63;101559.56;3591618;39;20063;-61
2023/01/10 08:39:25;;;;;;;18.92;3.67;;;;;;;5.88;77.73;101565.41;3602913;39;20058;-61
2023/01/10 08:41:51;;;;;;;21.65;4.15;;;;;;;5.96;77.56;101560.72;3606165;39;20046;-61
2023/01/10 08:44:17;;;;;;;11.77;2.90;;;;;;;5.93;77.27;101560.81;3605437;39;20055;-60
2023/01/10 08:46:44;;;;;;;18.38;3.65;;;;;;;6.03;77.01;101554.28;3604974;39;20058;-62
2023/01/10 08:49:10;;;;;;;18.17;3.75;;;;;;;6.00;77.02;101546.38;3603127;39;20108;-61
2023/01/10 08:51:35;;;;;;;16.65;3.63;;;;;;;6.12;76.96;101554.00;3603830;39;20402;-61
2023/01/10 08:54:01;;;;;;;15.77;3.67;;;;;;;6.14;77.22;101562.81;3604720;39;20123;-61
2023/01/10 08:56:27;;;;;;;14.70;3.40;;;;;;;6.16;76.57;101562.78;3603895;39;20279;-59
2023/01/10 08:58:52;;;;;;;16.48;3.40;;;;;;;6.20;76.26;101551.94;3604160;39;20154;-61
2023/01/10 09:01:18;;;;;;;20.52;3.97;;;;;;;6.28;76.02;101559.72;3605530;39;20055;-61
2023/01/10 09:03:44;;;;;;;22.13;4.10;;;;;;;6.31;76.04;101548.94;3609105;39;20263;-61
2023/01/10 09:06:10;;;;;;;21.40;4.22;;;;;;;6.33;75.77;101547.09;3611359;39;20058;-61
2023/01/10 09:08:37;;;;;;;20.15;4.28;;;;;;;6.38;75.68;101545.16;3608777;39;20054;-61
2023/01/10 09:11:04;;;;;;;29.65;4.07;;;;;;;6.42;76.17;101545.91;3607578;39;20632;-63
2023/01/10 09:13:32;;;;;;;12.00;2.83;;;;;;;6.45;75.41;101541.34;3603496;39;20393;-60
2023/01/10 09:15:59;;;;;;;21.30;3.90;;;;;;;5.79;75.91;101423.34;3605427;39;20071;-61
2023/01/10 09:18:25;;;;;;;16.70;3.60;;;;;;;6.23;75.24;101497.59;3603742;39;20051;-61
2023/01/10 09:20:53;;;;;;;17.58;3.78;;;;;;;6.57;75.14;101539.22;3604122;39;20433;-61
2023/01/10 09:23:22;;;;;;;17.75;3.28;;;;;;;6.55;75.45;101527.69;3603282;39;20058;-61
2023/01/10 09:25:52;;;;;;;21.30;4.03;;;;;;;6.61;75.20;101540.84;3607001;39;20266;-62
2023/01/10 09:28:18;;;;;;;20.25;3.72;;;;;;;6.63;75.05;101541.63;3607509;39;20067;-61
2023/01/10 09:30:44;;;;;;;21.23;4.75;;;;;;;6.65;75.28;101538.00;3605022;39;20066;-60
2023/01/10 09:33:11;;;;;;;17.33;3.58;;;;;;;6.67;75.08;101538.81;3603824;39;20069;-60
2023/01/10 09:35:40;;;;;;;16.42;3.33;;;;;;;6.69;75.15;101534.31;3603700;39;20055;-62
2023/01/10 09:38:11;;;;;;;15.88;3.35;;;;;;;6.66;74.89;101537.09;3603352;39;20099;-61
2023/01/10 09:40:58;;;;;;;17.20;3.90;;;;;;;6.68;74.61;101537.91;3604932;39;20067;-61
2023/01/10 09:43:50;;;;;;;20.60;3.38;;;;;;;6.71;74.56;101532.44;3606059;39;20591;-61
2023/01/10 09:46:33;;;;;;;21.50;4.28;;;;;;;6.77;74.27;101541.19;3605321;39;20397;-61
2023/01/10 09:49:19;;;;;;;16.98;3.33;;;;;;;6.82;74.98;101539.22;3606253;39;20062;-61
2023/01/10 09:51:51;;;;;;;16.00;3.88;;;;;;;6.85;74.02;101539.09;3608275;39;20052;-61
2023/01/10 09:54:33;;;;;;;21.70;3.50;;;;;;;6.87;74.53;101523.91;3608654;39;20055;-61
2023/01/10 09:57:01;;;;;;;19.77;3.88;;;;;;;6.97;73.87;101528.84;3604647;39;20124;-61
2023/01/10 09:59:37;;;;;;;19.05;3.50;;;;;;;7.02;74.49;101530.50;3608481;39;20051;-61
2023/01/10 10:02:33;;;;;;;13.55;3.28;;;;;;;7.06;73.18;101533.00;3606555;39;20063;-61
2023/01/10 10:05:23;;;;;;;16.08;3.15;;;;;;;7.08;73.22;101533.84;3603514;39;20051;-62
2023/01/10 10:08:01;;;;;;;18.70;3.38;;;;;;;7.12;73.72;101538.13;3602823;39;20431;-61
2023/01/10 10:10:30;;;;;;;13.55;3.25;;;;;;;7.17;73.68;101533.50;3604660;39;22840;-62
2023/01/10 10:14:08;;;;;;;14.73;3.17;;;;;;;7.19;72.58;101528.97;3603507;39;20058;-61
2023/01/10 10:17:12;;;;;;;19.77;4.28;;;;;;;7.26;72.92;101523.38;3564377;40;20060;-61
2023/01/10 10:20:13;;;;;;;19.05;3.47;;;;;;;7.27;73.05;101509.97;3603165;39;20078;-61
2023/01/10 10:23:02;;;;;;;15.02;3.38;;;;;;;7.31;72.40;101508.06;3607597;39;20054;-61
2023/01/10 10:26:23;;;;;;;17.48;3.22;;;;;;;7.34;72.84;101510.63;3604178;39;20412;-62
2023/01/10 10:29:01;;;;;;;20.10;3.38;;;;;;;7.40;73.07;101502.38;3604923;39;20040;-62
2023/01/10 10:32:07;;;;;;;12.90;3.03;;;;;;;7.41;72.82;101513.00;3602900;39;20355;-62
2023/01/10 10:34:39;;;;;;;22.70;4.03;;;;;;;7.49;72.79;101503.81;3603718;39;20304;-61
2023/01/10 10:37:24;;;;;;;16.05;3.78;;;;;;;7.54;72.63;101502.69;3607774;39;20078;-61
2023/01/10 10:40:10;;;;;;;17.75;3.85;;;;;;;7.58;72.90;101504.34;3603250;39;20652;-61
2023/01/10 10:42:41;;;;;;;19.02;4.05;;;;;;;7.60;72.60;101489.09;3606663;39;20833;-61
2023/01/10 10:45:29;;;;;;;19.55;3.83;;;;;;;7.66;72.44;101472.78;3606216;39;20313;-61
2023/01/10 10:48:09;;;;;;;15.27;3.88;;;;;;;7.46;71.74;101429.91;3603490;39;20129;-62
2023/01/10 10:50:50;;;;;;;16.33;3.45;;;;;;;7.69;71.96;101479.84;3608168;39;20050;-61
2023/01/10 10:53:18;;;;;;;17.20;3.05;;;;;;;7.67;71.61;101469.22;3602675;39;20057;-62
2023/01/10 10:55:44;;;;;;;19.13;3.30;;;;;;;7.75;72.42;101470.69;3603003;39;20049;-61
2023/01/10 10:58:13;;;;;;;16.15;3.63;;;;;;;7.78;71.90;101462.53;3603937;39;20111;-64
2023/01/10 11:00:40;;;;;;;19.88;3.28;;;;;;;7.73;72.79;101443.97;3603658;39;20059;-61
2023/01/10 11:03:28;;;;;;;18.38;3.40;;;;;;;7.87;71.90;101457.69;3606828;39;20366;-62
2023/01/10 11:05:56;;;;;;;15.13;3.20;;;;;;;7.91;71.73;101455.75;3605236;39;20059;-62
2023/01/10 11:08:23;;;;;;;16.33;3.92;;;;;;;7.95;71.77;101449.34;3605264;39;20378;-61
2023/01/10 11:10:57;;;;;;;16.95;3.78;;;;;;;7.97;71.60;101447.47;3603103;39;20051;-62
2023/01/10 11:13:31;;;;;;;19.10;3.85;;;;;;;7.96;71.06;101435.03;3605499;39;20043;-61
2023/01/10 11:15:59;;;;;;;16.60;3.83;;;;;;;7.99;71.76;101428.66;3600328;39;20106;-62
2023/01/10 11:18:29;;;;;;;19.38;4.03;;;;;;;8.02;71.68;101433.88;3603006;39;20047;-61
2023/01/10 11:21:11;;;;;;;18.88;3.92;;;;;;;8.04;71.83;101432.03;3602897;39;20055;-61
2023/01/10 11:23:51;;;;;;;18.55;3.80;;;;;;;8.03;71.38;101425.81;3604060;39;20046;-62
2023/01/10 11:26:23;;;;;;;18.75;4.22;;;;;;;8.05;71.99;101429.28;3602797;39;20062;-62
2023/01/10 11:29:05;;;;;;;21.70;4.70;;;;;;;7.88;71.51;101394.31;3606517;39;20054;-62
2023/01/10 11:31:33;;;;;;;26.33;5.85;;;;;;;8.08;71.94;101426.47;3605080;39;20055;-61
2023/01/10 11:34:07;;;;;;;21.13;4.75;;;;;;;8.14;71.35;101433.38;3608384;39;20067;-62
2023/01/10 11:36:56;;;;;;;22.48;4.93;;;;;;;8.06;71.22;101412.28;3605748;39;20043;-61
2023/01/10 11:39:22;;;;;;;21.10;4.30;;;;;;;8.18;70.96;101432.31;3602757;39;20377;-62
2023/01/10 11:41:51;;;;;;;20.42;4.07;;;;;;;8.18;71.31;101434.13;3605317;39;20091;-62
2023/01/10 11:44:26;;;;;;;19.70;4.30;;;;;;;8.20;71.44;101424.22;3607853;39;20055;-62
2023/01/10 11:46:58;;;;;;;16.88;3.92;;;;;;;8.24;70.85;101413.31;3607474;39;20043;-62
2023/01/10 11:49:43;;;;;;;22.75;4.85;;;;;;;8.28;71.56;101414.06;3604676;39;20302;-62
2023/01/10 11:52:31;;;;;;;15.55;4.07;;;;;;;8.28;70.40;101416.75;3606105;39;20055;-62
2023/01/10 11:55:00;;;;;;;19.45;3.75;;;;;;;8.26;70.43;101421.28;3602470;39;20058;-62
2023/01/10 11:57:31;;;;;;;17.25;3.80;;;;;;;8.28;70.50;101420.28;3603484;39;20078;-62